createdAt,value
2022-08-23T00:01:43.561Z,97.30
2022-08-23T00:04:15.842Z,98.26
2022-08-23T00:06:48.538Z,97.71
2022-08-23T00:09:15.871Z,99.53
2022-08-23T00:11:47.118Z,98.96
2022-08-23T00:14:20.222Z,99.69
2022-08-23T00:16:47.167Z,100.00
2022-08-23T00:19:17.109Z,99.15
2022-08-23T00:21:45.562Z,100.00
2022-08-23T00:24:14.129Z,100.00
2022-08-23T00:27:06.560Z,100.00
2022-08-23T00:29:52.881Z,98.96
2022-08-23T00:32:33.515Z,100.00
2022-08-23T00:35:01.517Z,100.00
2022-08-23T00:37:32.372Z,100.00
2022-08-23T00:40:00.686Z,100.00
2022-08-23T00:43:12.093Z,100.00
2022-08-23T00:46:07.671Z,100.00
2022-08-23T00:48:35.742Z,100.00
2022-08-23T00:51:18.708Z,100.00
2022-08-23T00:53:52.037Z,100.00
2022-08-23T00:56:21.848Z,100.00
2022-08-23T00:58:49.547Z,100.00
2022-08-23T01:01:17.787Z,100.00
2022-08-23T01:04:04.052Z,100.00
2022-08-23T01:06:45.890Z,100.00
2022-08-23T01:09:18.545Z,100.00
2022-08-23T01:12:08.000Z,100.00
2022-08-23T01:15:22.771Z,100.00
2022-08-23T01:18:02.711Z,100.00
2022-08-23T01:20:41.163Z,100.00
2022-08-23T01:23:41.554Z,100.00
2022-08-23T01:26:10.774Z,100.00
2022-08-23T01:28:40.865Z,100.00
2022-08-23T01:31:15.137Z,100.00
2022-08-23T01:33:43.763Z,100.00
2022-08-23T01:36:14.109Z,100.00
2022-08-23T01:38:40.927Z,100.00
2022-08-23T01:41:07.775Z,100.00
2022-08-23T01:43:35.737Z,100.00
2022-08-23T01:46:20.811Z,100.00
2022-08-23T01:48:49.938Z,100.00
2022-08-23T01:51:19.957Z,100.00
2022-08-23T01:53:47.146Z,100.00
2022-08-23T01:56:15.483Z,100.00
2022-08-23T01:58:42.363Z,100.00
2022-08-23T02:01:09.198Z,100.00
2022-08-23T02:03:37.212Z,100.00
2022-08-23T02:06:04.653Z,100.00
2022-08-23T02:08:50.420Z,100.00
2022-08-23T02:11:23.640Z,100.00
2022-08-23T02:13:53.202Z,100.00
2022-08-23T02:16:40.481Z,100.00
2022-08-23T02:19:13.201Z,100.00
2022-08-23T02:21:41.110Z,100.00
2022-08-23T02:24:12.739Z,100.00
2022-08-23T02:26:46.426Z,100.00
2022-08-23T02:29:15.636Z,100.00
2022-08-23T02:31:44.238Z,100.00
2022-08-23T02:36:59.048Z,100.00
2022-08-23T02:39:25.988Z,100.00
2022-08-23T02:41:53.555Z,100.00
2022-08-23T02:44:21.519Z,100.00
2022-08-23T02:46:48.940Z,100.00
2022-08-23T02:49:17.171Z,100.00
2022-08-23T02:51:45.087Z,100.00
2022-08-23T02:54:12.226Z,100.00
2022-08-23T02:56:39.655Z,100.00
2022-08-23T02:59:07.131Z,100.00
2022-08-23T03:01:38.722Z,100.00
2022-08-23T03:04:09.659Z,100.00
2022-08-23T03:06:38.381Z,100.00
2022-08-23T03:09:07.196Z,100.00
2022-08-23T03:11:35.192Z,100.00
2022-08-23T03:14:02.139Z,100.00
2022-08-23T03:16:29.579Z,100.00
2022-08-23T03:18:56.539Z,100.00
2022-08-23T03:21:23.605Z,100.00
2022-08-23T03:23:51.394Z,100.00
2022-08-23T03:26:18.403Z,100.00
2022-08-23T03:28:46.359Z,100.00
2022-08-23T03:31:15.815Z,100.00
2022-08-23T03:33:42.864Z,100.00
2022-08-23T03:36:12.076Z,100.00
2022-08-23T03:38:40.177Z,100.00
2022-08-23T03:41:07.829Z,100.00
2022-08-23T03:43:36.537Z,100.00
2022-08-23T03:46:05.331Z,100.00
2022-08-23T03:48:32.392Z,100.00
2022-08-23T03:51:00.143Z,100.00
2022-08-23T03:53:26.967Z,100.00
2022-08-23T03:55:56.332Z,100.00
2022-08-23T03:58:24.258Z,100.00
2022-08-23T04:00:51.072Z,100.00
2022-08-23T04:03:18.074Z,100.00
2022-08-23T04:05:45.312Z,100.00
2022-08-23T04:08:12.148Z,100.00
2022-08-23T04:10:39.306Z,100.00
2022-08-23T04:13:08.993Z,100.00
2022-08-23T04:15:36.945Z,100.00
2022-08-23T04:18:04.276Z,100.00
2022-08-23T04:20:31.189Z,100.00
2022-08-23T04:22:58.197Z,100.00
2022-08-23T04:25:34.654Z,100.00
2022-08-23T04:28:03.302Z,100.00
2022-08-23T04:30:31.154Z,100.00
2022-08-23T04:32:58.077Z,100.00
2022-08-23T04:35:26.051Z,100.00
2022-08-23T04:37:53.786Z,100.00
2022-08-23T04:40:39.616Z,100.00
2022-08-23T04:43:08.614Z,100.00
2022-08-23T04:45:39.345Z,100.00
2022-08-23T04:48:07.010Z,100.00
2022-08-23T04:50:39.564Z,100.00
2022-08-23T04:53:06.969Z,100.00
2022-08-23T04:55:34.983Z,100.00
2022-08-23T04:58:04.584Z,100.00
2022-08-23T05:00:31.553Z,100.00
2022-08-23T05:02:58.482Z,100.00
2022-08-23T05:05:25.638Z,100.00
2022-08-23T05:07:52.454Z,100.00
2022-08-23T05:10:19.824Z,100.00
2022-08-23T05:12:47.222Z,100.00
2022-08-23T05:15:14.477Z,100.00
2022-08-23T05:17:41.410Z,100.00
2022-08-23T05:20:10.422Z,100.00
2022-08-23T05:22:40.888Z,100.00
2022-08-23T05:25:08.506Z,100.00
2022-08-23T05:27:35.826Z,100.00
2022-08-23T05:30:04.368Z,100.00
2022-08-23T05:32:33.660Z,100.00
2022-08-23T05:35:00.856Z,100.00
2022-08-23T05:37:27.772Z,100.00
2022-08-23T05:39:54.719Z,100.00
2022-08-23T05:42:22.224Z,100.00
2022-08-23T05:44:49.027Z,100.00
2022-08-23T05:47:17.812Z,100.00
2022-08-23T05:49:51.773Z,100.00
2022-08-23T05:52:18.775Z,100.00
2022-08-23T05:54:45.614Z,100.00
2022-08-23T05:57:12.524Z,100.00
2022-08-23T05:59:41.682Z,100.00
2022-08-23T06:02:08.524Z,100.00
2022-08-23T06:04:36.074Z,100.00
2022-08-23T06:07:03.024Z,100.00
2022-08-23T06:09:29.894Z,100.00
2022-08-23T06:11:58.627Z,100.00
2022-08-23T06:14:25.561Z,100.00
2022-08-23T06:16:55.869Z,100.00
2022-08-23T06:19:24.132Z,100.00
2022-08-23T06:21:52.229Z,100.00
2022-08-23T06:24:19.716Z,100.00
2022-08-23T06:26:47.496Z,100.00
2022-08-23T06:29:17.492Z,100.00
2022-08-23T06:31:48.961Z,100.00
2022-08-23T06:34:33.571Z,100.00
2022-08-23T06:37:09.983Z,100.00
2022-08-23T06:39:38.423Z,100.00
2022-08-23T06:42:36.536Z,100.00
2022-08-23T06:44:58.850Z,100.00
2022-08-23T06:47:25.816Z,100.00
2022-08-23T06:49:57.996Z,100.00
2022-08-23T06:52:27.478Z,100.00
2022-08-23T06:54:54.594Z,100.00
2022-08-23T06:57:21.791Z,100.00
2022-08-23T06:59:49.899Z,100.00
2022-08-23T07:02:16.907Z,100.00
2022-08-23T07:04:43.847Z,100.00
2022-08-23T07:07:12.359Z,100.00
2022-08-23T07:09:40.434Z,100.00
2022-08-23T07:12:07.645Z,100.00
2022-08-23T07:14:34.838Z,100.00
2022-08-23T07:17:03.498Z,100.00
2022-08-23T07:19:34.269Z,100.00
2022-08-23T07:22:04.062Z,100.00
2022-08-23T07:24:34.429Z,100.00
2022-08-23T07:27:07.076Z,100.00
2022-08-23T07:29:36.473Z,100.00
2022-08-23T07:32:04.007Z,100.00
2022-08-23T07:34:30.854Z,100.00
2022-08-23T07:36:57.680Z,100.00
2022-08-23T07:39:26.478Z,100.00
2022-08-23T07:41:53.391Z,100.00
2022-08-23T07:44:23.520Z,100.00
2022-08-23T07:46:54.571Z,100.00
2022-08-23T07:49:21.775Z,100.00
2022-08-23T07:51:52.086Z,100.00
2022-08-23T07:54:22.230Z,100.00
2022-08-23T07:56:49.134Z,99.19
2022-08-23T07:59:16.061Z,98.92
2022-08-23T08:01:44.655Z,99.08
2022-08-23T08:04:12.551Z,97.95
2022-08-23T08:06:46.066Z,98.60
2022-08-23T08:09:15.529Z,98.29
2022-08-23T08:11:47.437Z,97.30
2022-08-23T08:14:17.136Z,97.40
2022-08-23T08:16:47.768Z,97.46
2022-08-23T08:19:18.971Z,96.32
2022-08-23T08:21:48.236Z,96.38
2022-08-23T08:24:16.754Z,95.23
2022-08-23T08:26:45.336Z,95.11
2022-08-23T08:29:13.270Z,94.42
2022-08-23T08:31:43.858Z,93.63
2022-08-23T08:34:11.957Z,92.54
2022-08-23T08:36:49.502Z,91.83
2022-08-23T08:39:21.305Z,91.39
2022-08-23T08:42:12.355Z,90.51
2022-08-23T08:45:27.878Z,90.09
2022-08-23T08:48:03.821Z,89.39
2022-08-23T08:50:53.878Z,83.90
2022-08-23T08:53:38.931Z,85.67
2022-08-23T08:56:33.015Z,84.89
2022-08-23T08:59:06.700Z,84.49
2022-08-23T09:01:36.738Z,83.26
2022-08-23T09:04:05.808Z,77.48
2022-08-23T09:07:07.097Z,76.72
2022-08-23T09:09:53.826Z,77.68
2022-08-23T09:12:49.807Z,77.17
2022-08-23T09:15:49.845Z,76.64
2022-08-23T09:18:17.065Z,75.92
2022-08-23T09:20:47.626Z,76.32
2022-08-23T09:23:21.724Z,76.83
2022-08-23T09:26:03.775Z,75.21
2022-08-23T09:28:36.429Z,74.59
2022-08-23T09:31:03.961Z,75.24
2022-08-23T09:33:43.585Z,75.68
2022-08-23T09:36:27.081Z,76.13
2022-08-23T09:39:00.969Z,74.80
2022-08-23T09:41:38.021Z,73.52
2022-08-23T09:44:09.863Z,72.45
2022-08-23T09:46:42.642Z,66.72
2022-08-23T09:49:28.123Z,65.80
2022-08-23T09:51:59.835Z,62.06
2022-08-23T09:54:34.181Z,56.10
2022-08-23T09:57:10.206Z,54.45
2022-08-23T09:59:51.707Z,54.36
2022-08-23T10:02:21.510Z,56.26
2022-08-23T10:05:18.335Z,57.14
2022-08-23T10:07:58.696Z,52.73
2022-08-23T10:10:43.595Z,54.26
2022-08-23T10:13:13.731Z,53.43
2022-08-23T10:16:04.952Z,54.29
2022-08-23T10:19:18.024Z,49.40
2022-08-23T10:22:03.824Z,52.00
2022-08-23T10:24:47.197Z,48.80
2022-08-23T10:28:06.051Z,49.63
2022-08-23T10:31:00.164Z,45.84
2022-08-23T10:33:47.139Z,46.12
2022-08-23T10:36:19.901Z,47.27
2022-08-23T10:38:59.350Z,45.72
2022-08-23T10:42:11.300Z,45.38
2022-08-23T10:44:55.663Z,42.77
2022-08-23T10:47:34.305Z,41.35
2022-08-23T10:50:12.347Z,42.72
2022-08-23T10:52:53.723Z,42.48
2022-08-23T10:56:04.156Z,41.13
2022-08-23T10:58:48.308Z,42.78
2022-08-23T11:01:22.870Z,39.82
2022-08-23T11:04:06.944Z,42.15
2022-08-23T11:06:36.690Z,40.94
2022-08-23T11:09:17.462Z,39.10
2022-08-23T11:12:19.752Z,38.82
2022-08-23T11:15:07.319Z,38.54
2022-08-23T11:17:49.385Z,38.72
2022-08-23T11:20:51.591Z,39.39
2022-08-23T11:23:43.623Z,38.78
2022-08-23T11:26:36.053Z,38.30
2022-08-23T11:29:11.725Z,38.85
2022-08-23T11:31:44.907Z,40.28
2022-08-23T11:34:29.707Z,37.58
2022-08-23T11:37:18.777Z,36.06
2022-08-23T11:40:16.076Z,35.34
2022-08-23T11:42:53.361Z,34.30
2022-08-23T11:45:41.566Z,33.99
2022-08-23T11:48:27.406Z,32.79
2022-08-23T11:51:27.324Z,32.91
2022-08-23T11:53:54.033Z,33.06
2022-08-23T11:56:52.330Z,32.17
2022-08-23T11:59:49.637Z,32.02
2022-08-23T12:02:53.014Z,32.57
2022-08-23T12:05:51.693Z,32.97
2022-08-23T12:08:24.087Z,35.49
2022-08-23T12:10:51.060Z,36.29
2022-08-23T12:13:20.848Z,35.21
2022-08-23T12:16:19.829Z,36.41
2022-08-23T12:18:49.758Z,36.44
2022-08-23T12:21:39.833Z,35.46
2022-08-23T12:24:25.458Z,36.31
2022-08-23T12:27:12.950Z,35.89
2022-08-23T12:30:05.380Z,36.81
2022-08-23T12:33:08.012Z,37.39
2022-08-23T12:35:41.882Z,37.74
2022-08-23T12:38:17.400Z,37.77
2022-08-23T12:40:50.661Z,37.59
2022-08-23T12:43:24.963Z,36.15
2022-08-23T12:46:00.836Z,36.06
2022-08-23T12:48:33.263Z,36.79
2022-08-23T12:51:08.445Z,36.76
2022-08-23T12:53:45.634Z,35.89
2022-08-23T12:56:22.763Z,36.36
2022-08-23T12:59:04.463Z,36.82
2022-08-23T13:01:38.449Z,37.07
2022-08-23T13:04:15.628Z,37.39
2022-08-23T13:06:47.381Z,36.76
2022-08-23T13:09:18.377Z,36.34
2022-08-23T13:11:46.232Z,34.58
2022-08-23T13:14:31.882Z,34.47
2022-08-23T13:17:26.969Z,34.61
2022-08-23T13:20:13.818Z,35.88
2022-08-23T13:23:00.691Z,35.84
2022-08-23T13:25:38.149Z,36.02
2022-08-23T13:28:22.029Z,36.50
2022-08-23T13:31:08.503Z,34.62
2022-08-23T13:33:35.921Z,34.02
2022-08-23T13:36:21.425Z,36.03
2022-08-23T13:38:49.169Z,36.10
2022-08-23T13:41:38.581Z,35.43
2022-08-23T13:44:10.201Z,34.68
2022-08-23T13:46:45.461Z,36.16
2022-08-23T13:49:28.403Z,34.74
2022-08-23T13:52:26.359Z,34.42
2022-08-23T13:54:51.291Z,35.12
2022-08-23T13:57:20.521Z,36.16
2022-08-23T13:59:56.315Z,36.06
2022-08-23T14:02:24.476Z,36.43
2022-08-23T14:04:51.433Z,36.74
2022-08-23T14:07:19.255Z,35.97
2022-08-23T14:09:46.341Z,36.15
2022-08-23T14:12:21.294Z,35.25
2022-08-23T14:14:48.794Z,36.14
2022-08-23T14:17:16.998Z,34.00
2022-08-23T14:22:34.494Z,34.46
2022-08-23T14:25:01.487Z,34.15
2022-08-23T14:27:28.345Z,33.68
2022-08-23T14:29:55.173Z,33.29
2022-08-23T14:32:22.219Z,33.97
2022-08-23T14:34:49.428Z,33.58
2022-08-23T14:40:04.775Z,33.21
2022-08-23T14:42:31.912Z,33.23
2022-08-23T14:45:00.962Z,33.44
2022-08-23T14:47:27.870Z,33.52
2022-08-23T14:49:54.803Z,33.42
2022-08-23T14:52:22.515Z,32.89
2022-08-23T14:54:49.871Z,33.77
2022-08-23T14:57:16.852Z,34.62
2022-08-23T14:59:43.947Z,34.37
2022-08-23T15:02:13.761Z,32.58
2022-08-23T15:04:42.144Z,34.63
2022-08-23T15:07:18.555Z,34.44
2022-08-23T15:09:52.132Z,34.17
2022-08-23T15:15:12.743Z,31.81
2022-08-23T15:17:54.768Z,31.91
2022-08-23T15:20:25.979Z,32.64
2022-08-23T15:23:03.511Z,34.22
2022-08-23T15:25:33.387Z,34.27
2022-08-23T15:28:05.060Z,32.70
2022-08-23T15:30:33.697Z,32.28
2022-08-23T15:33:01.152Z,32.76
2022-08-23T15:35:29.139Z,34.01
2022-08-23T15:37:57.233Z,34.83
2022-08-23T15:40:25.555Z,33.86
2022-08-23T15:42:53.078Z,35.37
2022-08-23T15:45:20.154Z,36.44
2022-08-23T15:47:54.837Z,34.83
2022-08-23T15:50:26.922Z,33.64
2022-08-23T15:52:54.686Z,32.78
2022-08-23T15:55:24.143Z,32.77
2022-08-23T15:57:52.878Z,33.32
2022-08-23T16:00:22.638Z,33.93
2022-08-23T16:03:27.728Z,34.50
2022-08-23T16:05:39.971Z,34.40
2022-08-23T16:08:07.895Z,34.12
2022-08-23T16:10:35.087Z,33.99
2022-08-23T16:13:03.668Z,33.54
2022-08-23T16:15:31.107Z,33.02
2022-08-23T16:17:57.954Z,32.78
2022-08-23T16:20:25.383Z,33.15
2022-08-23T16:22:52.332Z,32.38
2022-08-23T16:25:19.290Z,33.24
2022-08-23T16:27:46.104Z,33.70
2022-08-23T16:30:14.544Z,34.99
2022-08-23T16:32:41.679Z,35.58
2022-08-23T16:35:09.631Z,36.26
2022-08-23T16:37:36.693Z,35.73
2022-08-23T16:40:07.027Z,34.73
2022-08-23T16:42:33.926Z,35.45
2022-08-23T16:45:01.052Z,34.17
2022-08-23T16:47:29.098Z,34.02
2022-08-23T16:49:56.003Z,33.47
2022-08-23T16:52:32.008Z,33.80
2022-08-23T16:55:07.968Z,33.90
2022-08-23T16:57:34.898Z,34.16
2022-08-23T17:00:02.172Z,33.72
2022-08-23T17:02:33.364Z,34.11
2022-08-23T17:05:00.767Z,33.58
2022-08-23T17:07:27.701Z,34.13
2022-08-23T17:09:54.569Z,33.91
2022-08-23T17:12:21.768Z,34.17
2022-08-23T17:14:50.767Z,34.70
2022-08-23T17:17:18.241Z,35.05
2022-08-23T17:19:45.056Z,35.23
2022-08-23T17:22:12.520Z,35.83
2022-08-23T17:24:39.539Z,36.37
2022-08-23T17:27:07.172Z,36.46
2022-08-23T17:29:37.331Z,36.89
2022-08-23T17:32:05.225Z,38.35
2022-08-23T17:34:32.200Z,38.88
2022-08-23T17:36:59.692Z,39.62
2022-08-23T17:39:29.295Z,39.96
2022-08-23T17:41:58.389Z,40.50
2022-08-23T17:44:25.394Z,40.88
2022-08-23T17:46:52.981Z,41.17
2022-08-23T17:49:20.398Z,41.04
2022-08-23T17:51:48.280Z,42.45
2022-08-23T17:54:15.870Z,42.86
2022-08-23T17:56:43.448Z,43.21
2022-08-23T17:59:18.962Z,43.59
2022-08-23T18:01:45.796Z,44.55
2022-08-23T18:04:12.696Z,46.58
2022-08-23T18:06:39.657Z,48.40
2022-08-23T18:09:07.791Z,50.54
2022-08-23T18:11:35.889Z,50.95
2022-08-23T18:14:03.357Z,50.57
2022-08-23T18:16:35.280Z,50.11
2022-08-23T18:19:05.019Z,51.05
2022-08-23T18:21:33.045Z,52.12
2022-08-23T18:23:59.933Z,52.99
2022-08-23T18:26:46.396Z,53.53
2022-08-23T18:29:14.746Z,52.86
2022-08-23T18:31:44.179Z,53.82
2022-08-23T18:34:13.063Z,54.68
2022-08-23T18:36:40.450Z,56.08
2022-08-23T18:39:09.161Z,56.35
2022-08-23T18:41:36.108Z,57.36
2022-08-23T18:44:05.448Z,57.69
2022-08-23T18:46:39.040Z,57.64
2022-08-23T18:49:07.171Z,58.66
2022-08-23T18:51:34.197Z,59.48
2022-08-23T18:54:01.067Z,60.06
2022-08-23T18:56:29.179Z,59.63
2022-08-23T18:58:56.289Z,57.92
2022-08-23T19:01:26.173Z,58.68
2022-08-23T19:03:54.716Z,60.54
2022-08-23T19:06:22.453Z,63.31
2022-08-23T19:08:49.562Z,62.78
2022-08-23T19:11:16.381Z,61.67
2022-08-23T19:13:43.229Z,62.36
2022-08-23T19:16:13.193Z,63.44
2022-08-23T19:18:46.549Z,64.70
2022-08-23T19:21:18.228Z,63.43
2022-08-23T19:23:46.066Z,64.32
2022-08-23T19:26:15.666Z,64.92
2022-08-23T19:28:43.312Z,65.80
2022-08-23T19:31:11.359Z,66.33
2022-08-23T19:33:38.705Z,65.69
2022-08-23T19:36:06.228Z,65.90
2022-08-23T19:38:33.435Z,66.68
2022-08-23T19:41:02.797Z,67.11
2022-08-23T19:43:29.811Z,68.98
2022-08-23T19:45:59.454Z,69.00
2022-08-23T19:48:26.444Z,69.51
2022-08-23T19:50:53.563Z,70.53
2022-08-23T19:53:20.606Z,69.66
2022-08-23T19:55:47.897Z,69.56
2022-08-23T19:58:16.213Z,69.85
2022-08-23T20:00:43.185Z,70.32
2022-08-23T20:03:11.701Z,70.50
2022-08-23T20:05:39.265Z,71.57
2022-08-23T20:08:06.134Z,72.43
2022-08-23T20:10:33.070Z,74.01
2022-08-23T20:13:01.008Z,74.47
2022-08-23T20:15:29.138Z,74.38
2022-08-23T20:17:56.437Z,74.51
2022-08-23T20:20:23.262Z,74.63
2022-08-23T20:23:08.581Z,73.98
2022-08-23T20:25:36.590Z,72.84
2022-08-23T20:28:07.549Z,73.13
2022-08-23T20:30:37.356Z,74.11
2022-08-23T20:33:04.997Z,74.32
2022-08-23T20:35:31.987Z,75.08
2022-08-23T20:37:58.907Z,75.59
2022-08-23T20:40:26.035Z,75.43
2022-08-23T20:42:53.041Z,75.53
2022-08-23T20:45:20.857Z,75.00
2022-08-23T20:47:47.718Z,75.55
2022-08-23T20:50:14.659Z,75.61
2022-08-23T20:52:41.605Z,76.88
2022-08-23T20:55:10.692Z,77.92
2022-08-23T20:57:38.826Z,79.44
2022-08-23T21:00:07.779Z,79.69
2022-08-23T21:02:34.926Z,78.63
2022-08-23T21:05:01.769Z,81.24
2022-08-23T21:07:31.635Z,80.89
2022-08-23T21:09:58.459Z,79.84
2022-08-23T21:12:25.253Z,80.29
2022-08-23T21:14:52.231Z,80.40
2022-08-23T21:17:19.040Z,80.23
2022-08-23T21:19:45.958Z,80.10
2022-08-23T21:22:12.784Z,79.58
2022-08-23T21:24:39.588Z,79.99
2022-08-23T21:27:09.578Z,79.51
2022-08-23T21:29:37.663Z,79.89
2022-08-23T21:32:05.188Z,79.26
2022-08-23T21:34:32.007Z,80.01
2022-08-23T21:36:58.824Z,80.79
2022-08-23T21:39:26.229Z,82.57
2022-08-23T21:41:55.646Z,83.12
2022-08-23T21:44:23.290Z,84.15
2022-08-23T21:46:50.081Z,84.75
2022-08-23T21:49:17.195Z,84.59
2022-08-23T21:51:45.471Z,85.57
2022-08-23T21:54:13.821Z,85.21
2022-08-23T21:56:41.707Z,84.92
2022-08-23T21:59:16.671Z,86.07
2022-08-23T22:01:44.717Z,85.89
2022-08-23T22:04:14.839Z,86.16
2022-08-23T22:06:44.961Z,86.24
2022-08-23T22:09:18.328Z,86.03
2022-08-23T22:11:47.700Z,87.34
2022-08-23T22:14:25.537Z,87.28
2022-08-23T22:16:59.105Z,88.10
2022-08-23T22:19:26.304Z,89.76
2022-08-23T22:21:53.285Z,90.44
2022-08-23T22:24:25.500Z,90.64
2022-08-23T22:26:54.497Z,92.27
2022-08-23T22:29:21.807Z,93.43
2022-08-23T22:31:49.434Z,92.65
2022-08-23T22:34:16.711Z,93.86
2022-08-23T22:36:43.605Z,94.21
2022-08-23T22:39:13.058Z,95.93
2022-08-23T22:41:40.305Z,95.73
2022-08-23T22:44:07.402Z,97.60
2022-08-23T22:46:35.192Z,98.60
2022-08-23T22:49:02.196Z,100.00
2022-08-23T22:51:32.692Z,99.06
2022-08-23T22:54:02.978Z,100.00
2022-08-23T22:56:36.688Z,100.00
2022-08-23T22:59:03.675Z,100.00
2022-08-23T23:01:34.935Z,100.00
2022-08-23T23:04:06.682Z,100.00
2022-08-23T23:06:35.770Z,100.00
2022-08-23T23:09:06.374Z,100.00
2022-08-23T23:11:34.846Z,100.00
2022-08-23T23:14:03.406Z,100.00
2022-08-23T23:16:30.351Z,100.00
2022-08-23T23:19:17.549Z,100.00
2022-08-23T23:21:50.897Z,100.00
2022-08-23T23:24:23.584Z,100.00
2022-08-23T23:26:50.639Z,100.00
2022-08-23T23:29:18.719Z,100.00
2022-08-23T23:31:45.782Z,100.00
2022-08-23T23:34:12.770Z,100.00
2022-08-23T23:36:41.046Z,100.00
2022-08-23T23:39:10.853Z,100.00
2022-08-23T23:41:37.732Z,100.00
2022-08-23T23:44:05.705Z,100.00
2022-08-23T23:46:32.621Z,100.00
2022-08-23T23:48:59.439Z,100.00
2022-08-23T23:51:30.653Z,100.00
2022-08-23T23:53:59.369Z,100.00
2022-08-23T23:56:30.513Z,100.00
2022-08-23T23:58:58.618Z,100.00
